sensor_id;sensor_type;location;lat;lon;timestamp;P1;durP1;ratioP1;P2;durP2;ratioP2
55706;SDS011;41608;45.384;20.394;2023-05-09T00:02:14;16.52;;;8.15;;
55706;SDS011;41608;45.384;20.394;2023-05-09T00:04:41;16.70;;;9.38;;
55706;SDS011;41608;45.384;20.394;2023-05-09T00:07:07;13.13;;;8.82;;
55706;SDS011;41608;45.384;20.394;2023-05-09T00:09:35;14.07;;;9.32;;
55706;SDS011;41608;45.384;20.394;2023-05-09T00:12:01;16.90;;;9.18;;
55706;SDS011;41608;45.384;20.394;2023-05-09T00:14:28;15.68;;;10.20;;
55706;SDS011;41608;45.384;20.394;2023-05-09T00:16:57;14.73;;;9.63;;
55706;SDS011;41608;45.384;20.394;2023-05-09T00:19:23;12.90;;;8.32;;
55706;SDS011;41608;45.384;20.394;2023-05-09T00:21:49;10.45;;;6.25;;
55706;SDS011;41608;45.384;20.394;2023-05-09T00:24:16;9.13;;;7.05;;
55706;SDS011;41608;45.384;20.394;2023-05-09T00:26:42;12.23;;;6.32;;
55706;SDS011;41608;45.384;20.394;2023-05-09T00:29:08;10.35;;;6.65;;
55706;SDS011;41608;45.384;20.394;2023-05-09T00:31:34;11.30;;;7.57;;
55706;SDS011;41608;45.384;20.394;2023-05-09T00:34:00;17.85;;;8.05;;
55706;SDS011;41608;45.384;20.394;2023-05-09T00:36:26;12.07;;;8.20;;
55706;SDS011;41608;45.384;20.394;2023-05-09T00:38:52;13.25;;;7.75;;
55706;SDS011;41608;45.384;20.394;2023-05-09T00:41:18;12.75;;;7.55;;
55706;SDS011;41608;45.384;20.394;2023-05-09T00:43:45;8.13;;;6.50;;
55706;SDS011;41608;45.384;20.394;2023-05-09T00:46:11;8.85;;;6.90;;
55706;SDS011;41608;45.384;20.394;2023-05-09T00:48:37;9.00;;;5.38;;
55706;SDS011;41608;45.384;20.394;2023-05-09T00:51:03;9.02;;;6.80;;
55706;SDS011;41608;45.384;20.394;2023-05-09T00:53:30;10.48;;;6.70;;
55706;SDS011;41608;45.384;20.394;2023-05-09T00:55:56;10.43;;;6.65;;
55706;SDS011;41608;45.384;20.394;2023-05-09T00:58:22;10.07;;;6.97;;
55706;SDS011;41608;45.384;20.394;2023-05-09T01:00:49;8.10;;;6.13;;
55706;SDS011;41608;45.384;20.394;2023-05-09T01:03:15;7.38;;;6.53;;
55706;SDS011;41608;45.384;20.394;2023-05-09T01:05:55;7.50;;;6.07;;
55706;SDS011;41608;45.384;20.394;2023-05-09T01:08:34;9.98;;;6.80;;
55706;SDS011;41608;45.384;20.394;2023-05-09T01:11:05;7.22;;;5.20;;
55706;SDS011;41608;45.384;20.394;2023-05-09T01:16:17;8.60;;;5.82;;
55706;SDS011;41608;45.384;20.394;2023-05-09T01:18:45;7.97;;;5.93;;
55706;SDS011;41608;45.384;20.394;2023-05-09T01:21:16;8.90;;;5.53;;
55706;SDS011;41608;45.384;20.394;2023-05-09T01:23:49;13.48;;;6.20;;
55706;SDS011;41608;45.384;20.394;2023-05-09T01:26:29;7.63;;;5.35;;
55706;SDS011;41608;45.384;20.394;2023-05-09T01:31:37;10.23;;;5.82;;
55706;SDS011;41608;45.384;20.394;2023-05-09T01:34:05;8.70;;;6.50;;
55706;SDS011;41608;45.384;20.394;2023-05-09T01:36:33;7.15;;;5.05;;
55706;SDS011;41608;45.384;20.394;2023-05-09T01:39:02;6.43;;;4.88;;
55706;SDS011;41608;45.384;20.394;2023-05-09T01:41:29;8.63;;;5.50;;
55706;SDS011;41608;45.384;20.394;2023-05-09T01:43:56;12.63;;;9.93;;
55706;SDS011;41608;45.384;20.394;2023-05-09T01:46:23;7.93;;;6.05;;
55706;SDS011;41608;45.384;20.394;2023-05-09T01:48:50;8.50;;;6.53;;
55706;SDS011;41608;45.384;20.394;2023-05-09T01:51:17;8.90;;;5.63;;
55706;SDS011;41608;45.384;20.394;2023-05-09T01:53:44;8.05;;;5.53;;
55706;SDS011;41608;45.384;20.394;2023-05-09T01:56:12;8.30;;;6.13;;
55706;SDS011;41608;45.384;20.394;2023-05-09T01:58:39;8.75;;;5.25;;
55706;SDS011;41608;45.384;20.394;2023-05-09T02:01:06;7.90;;;5.70;;
55706;SDS011;41608;45.384;20.394;2023-05-09T02:03:33;11.73;;;5.90;;
55706;SDS011;41608;45.384;20.394;2023-05-09T02:06:00;9.60;;;6.30;;
55706;SDS011;41608;45.384;20.394;2023-05-09T02:08:29;8.25;;;5.70;;
55706;SDS011;41608;45.384;20.394;2023-05-09T02:10:56;7.70;;;6.05;;
55706;SDS011;41608;45.384;20.394;2023-05-09T02:13:22;8.07;;;5.47;;
55706;SDS011;41608;45.384;20.394;2023-05-09T02:15:48;8.35;;;5.55;;
55706;SDS011;41608;45.384;20.394;2023-05-09T02:18:14;6.70;;;5.35;;
55706;SDS011;41608;45.384;20.394;2023-05-09T02:20:41;9.43;;;5.32;;
55706;SDS011;41608;45.384;20.394;2023-05-09T02:23:07;9.10;;;6.22;;
55706;SDS011;41608;45.384;20.394;2023-05-09T02:25:33;10.10;;;5.63;;
55706;SDS011;41608;45.384;20.394;2023-05-09T02:27:59;7.72;;;5.55;;
55706;SDS011;41608;45.384;20.394;2023-05-09T02:30:26;6.22;;;4.50;;
55706;SDS011;41608;45.384;20.394;2023-05-09T02:32:56;8.98;;;5.65;;
55706;SDS011;41608;45.384;20.394;2023-05-09T02:35:25;16.52;;;5.95;;
55706;SDS011;41608;45.384;20.394;2023-05-09T02:37:51;7.95;;;5.53;;
55706;SDS011;41608;45.384;20.394;2023-05-09T02:40:18;7.65;;;5.65;;
55706;SDS011;41608;45.384;20.394;2023-05-09T02:42:44;9.40;;;6.32;;
55706;SDS011;41608;45.384;20.394;2023-05-09T02:45:10;10.55;;;6.13;;
55706;SDS011;41608;45.384;20.394;2023-05-09T02:47:37;9.73;;;6.25;;
55706;SDS011;41608;45.384;20.394;2023-05-09T02:50:06;7.82;;;6.30;;
55706;SDS011;41608;45.384;20.394;2023-05-09T02:52:32;10.73;;;6.50;;
55706;SDS011;41608;45.384;20.394;2023-05-09T02:54:58;8.57;;;6.13;;
55706;SDS011;41608;45.384;20.394;2023-05-09T02:57:24;13.32;;;7.53;;
55706;SDS011;41608;45.384;20.394;2023-05-09T02:59:50;11.07;;;6.13;;
55706;SDS011;41608;45.384;20.394;2023-05-09T03:02:17;11.98;;;6.53;;
55706;SDS011;41608;45.384;20.394;2023-05-09T03:04:43;9.10;;;6.40;;
55706;SDS011;41608;45.384;20.394;2023-05-09T03:07:09;10.18;;;6.68;;
55706;SDS011;41608;45.384;20.394;2023-05-09T03:09:35;9.15;;;6.47;;
55706;SDS011;41608;45.384;20.394;2023-05-09T03:12:01;10.68;;;7.30;;
55706;SDS011;41608;45.384;20.394;2023-05-09T03:14:28;8.68;;;6.18;;
55706;SDS011;41608;45.384;20.394;2023-05-09T03:16:55;9.57;;;6.00;;
55706;SDS011;41608;45.384;20.394;2023-05-09T03:19:21;8.20;;;6.32;;
55706;SDS011;41608;45.384;20.394;2023-05-09T03:21:47;9.20;;;6.20;;
55706;SDS011;41608;45.384;20.394;2023-05-09T03:24:13;10.20;;;6.00;;
55706;SDS011;41608;45.384;20.394;2023-05-09T03:26:39;8.57;;;5.85;;
55706;SDS011;41608;45.384;20.394;2023-05-09T03:29:06;9.27;;;7.53;;
55706;SDS011;41608;45.384;20.394;2023-05-09T03:31:32;7.97;;;5.60;;
55706;SDS011;41608;45.384;20.394;2023-05-09T03:33:58;11.35;;;6.53;;
55706;SDS011;41608;45.384;20.394;2023-05-09T03:36:26;8.27;;;5.72;;
55706;SDS011;41608;45.384;20.394;2023-05-09T03:38:56;9.93;;;6.45;;
55706;SDS011;41608;45.384;20.394;2023-05-09T03:41:22;13.30;;;6.95;;
55706;SDS011;41608;45.384;20.394;2023-05-09T03:43:48;9.77;;;5.95;;
55706;SDS011;41608;45.384;20.394;2023-05-09T03:46:16;10.35;;;6.20;;
55706;SDS011;41608;45.384;20.394;2023-05-09T03:48:45;9.23;;;6.25;;
55706;SDS011;41608;45.384;20.394;2023-05-09T03:51:11;10.50;;;6.63;;
55706;SDS011;41608;45.384;20.394;2023-05-09T03:53:37;10.68;;;6.32;;
55706;SDS011;41608;45.384;20.394;2023-05-09T03:56:03;15.85;;;6.90;;
55706;SDS011;41608;45.384;20.394;2023-05-09T03:58:30;12.45;;;6.68;;
55706;SDS011;41608;45.384;20.394;2023-05-09T04:00:56;10.50;;;6.38;;
55706;SDS011;41608;45.384;20.394;2023-05-09T04:03:25;11.57;;;6.05;;
55706;SDS011;41608;45.384;20.394;2023-05-09T04:05:51;9.05;;;6.28;;
55706;SDS011;41608;45.384;20.394;2023-05-09T04:08:17;11.65;;;6.57;;
55706;SDS011;41608;45.384;20.394;2023-05-09T04:10:48;9.18;;;5.90;;
55706;SDS011;41608;45.384;20.394;2023-05-09T04:13:14;10.15;;;6.32;;
55706;SDS011;41608;45.384;20.394;2023-05-09T04:15:41;9.27;;;6.63;;
55706;SDS011;41608;45.384;20.394;2023-05-09T04:18:07;8.02;;;6.18;;
55706;SDS011;41608;45.384;20.394;2023-05-09T04:20:40;9.30;;;5.85;;
55706;SDS011;41608;45.384;20.394;2023-05-09T04:23:06;10.38;;;6.25;;
55706;SDS011;41608;45.384;20.394;2023-05-09T04:25:32;7.72;;;5.50;;
55706;SDS011;41608;45.384;20.394;2023-05-09T04:27:58;9.70;;;6.45;;
55706;SDS011;41608;45.384;20.394;2023-05-09T04:30:24;12.50;;;7.68;;
55706;SDS011;41608;45.384;20.394;2023-05-09T04:32:53;20.45;;;7.38;;
55706;SDS011;41608;45.384;20.394;2023-05-09T04:35:20;9.40;;;6.40;;
55706;SDS011;41608;45.384;20.394;2023-05-09T04:37:48;10.00;;;6.57;;
55706;SDS011;41608;45.384;20.394;2023-05-09T04:40:16;11.82;;;7.22;;
55706;SDS011;41608;45.384;20.394;2023-05-09T04:42:43;9.02;;;6.75;;
55706;SDS011;41608;45.384;20.394;2023-05-09T04:45:11;8.98;;;6.22;;
55706;SDS011;41608;45.384;20.394;2023-05-09T04:47:37;13.57;;;7.45;;
55706;SDS011;41608;45.384;20.394;2023-05-09T04:50:06;8.35;;;6.10;;
55706;SDS011;41608;45.384;20.394;2023-05-09T04:52:33;13.25;;;6.32;;
55706;SDS011;41608;45.384;20.394;2023-05-09T04:54:59;10.23;;;7.30;;
55706;SDS011;41608;45.384;20.394;2023-05-09T04:57:26;10.68;;;7.20;;
55706;SDS011;41608;45.384;20.394;2023-05-09T04:59:54;9.80;;;6.82;;
55706;SDS011;41608;45.384;20.394;2023-05-09T05:02:20;11.02;;;5.93;;
55706;SDS011;41608;45.384;20.394;2023-05-09T05:04:49;11.95;;;7.80;;
55706;SDS011;41608;45.384;20.394;2023-05-09T05:07:16;9.57;;;6.72;;
55706;SDS011;41608;45.384;20.394;2023-05-09T05:09:42;12.07;;;7.40;;
55706;SDS011;41608;45.384;20.394;2023-05-09T05:12:08;8.95;;;6.40;;
55706;SDS011;41608;45.384;20.394;2023-05-09T05:14:34;14.50;;;6.97;;
55706;SDS011;41608;45.384;20.394;2023-05-09T05:17:00;10.25;;;7.22;;
55706;SDS011;41608;45.384;20.394;2023-05-09T05:19:26;16.88;;;7.78;;
55706;SDS011;41608;45.384;20.394;2023-05-09T05:21:55;10.25;;;7.22;;
55706;SDS011;41608;45.384;20.394;2023-05-09T05:24:21;15.90;;;8.00;;
55706;SDS011;41608;45.384;20.394;2023-05-09T05:26:48;11.10;;;8.90;;
55706;SDS011;41608;45.384;20.394;2023-05-09T05:29:14;11.65;;;8.30;;
55706;SDS011;41608;45.384;20.394;2023-05-09T05:31:42;11.13;;;6.65;;
55706;SDS011;41608;45.384;20.394;2023-05-09T05:34:08;10.55;;;7.53;;
55706;SDS011;41608;45.384;20.394;2023-05-09T05:36:37;9.50;;;7.45;;
55706;SDS011;41608;45.384;20.394;2023-05-09T05:39:03;10.40;;;7.63;;
55706;SDS011;41608;45.384;20.394;2023-05-09T05:41:29;10.75;;;7.90;;
55706;SDS011;41608;45.384;20.394;2023-05-09T05:43:57;14.90;;;8.32;;
55706;SDS011;41608;45.384;20.394;2023-05-09T05:46:23;12.20;;;7.10;;
55706;SDS011;41608;45.384;20.394;2023-05-09T05:48:52;9.93;;;6.93;;
55706;SDS011;41608;45.384;20.394;2023-05-09T05:51:18;12.15;;;8.32;;
55706;SDS011;41608;45.384;20.394;2023-05-09T05:53:45;11.68;;;8.10;;
55706;SDS011;41608;45.384;20.394;2023-05-09T05:56:11;9.82;;;6.82;;
55706;SDS011;41608;45.384;20.394;2023-05-09T05:58:37;15.60;;;8.18;;
55706;SDS011;41608;45.384;20.394;2023-05-09T06:01:03;15.45;;;8.65;;
55706;SDS011;41608;45.384;20.394;2023-05-09T06:03:29;12.02;;;8.02;;
55706;SDS011;41608;45.384;20.394;2023-05-09T06:05:58;14.30;;;8.55;;
55706;SDS011;41608;45.384;20.394;2023-05-09T06:08:24;13.07;;;7.07;;
55706;SDS011;41608;45.384;20.394;2023-05-09T06:10:53;11.43;;;7.60;;
55706;SDS011;41608;45.384;20.394;2023-05-09T06:13:19;12.32;;;7.47;;
55706;SDS011;41608;45.384;20.394;2023-05-09T06:15:47;12.95;;;7.97;;
55706;SDS011;41608;45.384;20.394;2023-05-09T06:18:16;10.98;;;7.53;;
55706;SDS011;41608;45.384;20.394;2023-05-09T06:20:44;13.60;;;9.18;;
55706;SDS011;41608;45.384;20.394;2023-05-09T06:23:12;10.10;;;6.72;;
55706;SDS011;41608;45.384;20.394;2023-05-09T06:25:38;12.32;;;8.52;;
55706;SDS011;41608;45.384;20.394;2023-05-09T06:28:06;10.63;;;6.63;;
55706;SDS011;41608;45.384;20.394;2023-05-09T06:30:33;14.13;;;7.82;;
55706;SDS011;41608;45.384;20.394;2023-05-09T06:32:59;13.13;;;7.10;;
55706;SDS011;41608;45.384;20.394;2023-05-09T06:35:25;13.88;;;8.65;;
55706;SDS011;41608;45.384;20.394;2023-05-09T06:37:51;12.75;;;7.80;;
55706;SDS011;41608;45.384;20.394;2023-05-09T06:40:17;17.70;;;8.48;;
55706;SDS011;41608;45.384;20.394;2023-05-09T06:42:44;10.05;;;6.70;;
55706;SDS011;41608;45.384;20.394;2023-05-09T06:45:10;11.32;;;7.20;;
55706;SDS011;41608;45.384;20.394;2023-05-09T06:47:39;10.13;;;7.50;;
55706;SDS011;41608;45.384;20.394;2023-05-09T06:50:05;10.25;;;7.18;;
55706;SDS011;41608;45.384;20.394;2023-05-09T06:52:34;16.65;;;8.15;;
55706;SDS011;41608;45.384;20.394;2023-05-09T06:55:03;13.90;;;8.07;;
55706;SDS011;41608;45.384;20.394;2023-05-09T06:57:33;9.77;;;7.85;;
55706;SDS011;41608;45.384;20.394;2023-05-09T07:00:00;11.75;;;8.55;;
55706;SDS011;41608;45.384;20.394;2023-05-09T07:02:26;15.45;;;9.43;;
55706;SDS011;41608;45.384;20.394;2023-05-09T07:04:56;11.50;;;8.02;;
55706;SDS011;41608;45.384;20.394;2023-05-09T07:07:22;12.57;;;9.05;;
55706;SDS011;41608;45.384;20.394;2023-05-09T07:09:51;14.50;;;9.20;;
55706;SDS011;41608;45.384;20.394;2023-05-09T07:12:17;10.75;;;7.68;;
55706;SDS011;41608;45.384;20.394;2023-05-09T07:14:45;16.27;;;8.15;;
55706;SDS011;41608;45.384;20.394;2023-05-09T07:17:11;33.05;;;10.63;;
55706;SDS011;41608;45.384;20.394;2023-05-09T07:19:37;15.23;;;8.20;;
55706;SDS011;41608;45.384;20.394;2023-05-09T07:22:03;14.13;;;8.65;;
55706;SDS011;41608;45.384;20.394;2023-05-09T07:24:30;20.77;;;10.43;;
55706;SDS011;41608;45.384;20.394;2023-05-09T07:26:57;15.35;;;8.13;;
55706;SDS011;41608;45.384;20.394;2023-05-09T07:29:25;13.80;;;7.80;;
55706;SDS011;41608;45.384;20.394;2023-05-09T07:31:54;14.18;;;8.75;;
55706;SDS011;41608;45.384;20.394;2023-05-09T07:34:20;20.50;;;9.65;;
55706;SDS011;41608;45.384;20.394;2023-05-09T07:36:50;19.30;;;9.75;;
55706;SDS011;41608;45.384;20.394;2023-05-09T07:39:17;13.80;;;9.30;;
55706;SDS011;41608;45.384;20.394;2023-05-09T07:41:45;14.93;;;9.32;;
55706;SDS011;41608;45.384;20.394;2023-05-09T07:44:11;15.45;;;9.23;;
55706;SDS011;41608;45.384;20.394;2023-05-09T07:46:37;12.95;;;8.77;;
55706;SDS011;41608;45.384;20.394;2023-05-09T07:49:06;15.23;;;9.35;;
55706;SDS011;41608;45.384;20.394;2023-05-09T07:51:34;12.77;;;8.50;;
55706;SDS011;41608;45.384;20.394;2023-05-09T07:54:02;23.38;;;11.20;;
55706;SDS011;41608;45.384;20.394;2023-05-09T07:56:29;13.23;;;8.52;;
55706;SDS011;41608;45.384;20.394;2023-05-09T07:58:55;13.55;;;8.60;;
55706;SDS011;41608;45.384;20.394;2023-05-09T08:01:23;16.23;;;8.60;;
55706;SDS011;41608;45.384;20.394;2023-05-09T08:03:49;15.38;;;8.32;;
55706;SDS011;41608;45.384;20.394;2023-05-09T08:06:16;16.95;;;8.82;;
55706;SDS011;41608;45.384;20.394;2023-05-09T08:08:42;13.20;;;8.98;;
55706;SDS011;41608;45.384;20.394;2023-05-09T08:11:08;13.23;;;8.75;;
55706;SDS011;41608;45.384;20.394;2023-05-09T08:13:34;15.68;;;10.80;;
55706;SDS011;41608;45.384;20.394;2023-05-09T08:16:01;12.75;;;8.98;;
55706;SDS011;41608;45.384;20.394;2023-05-09T08:18:27;14.98;;;9.95;;
55706;SDS011;41608;45.384;20.394;2023-05-09T08:20:53;15.10;;;9.13;;
55706;SDS011;41608;45.384;20.394;2023-05-09T08:23:19;19.85;;;10.82;;
55706;SDS011;41608;45.384;20.394;2023-05-09T08:25:45;16.67;;;9.18;;
55706;SDS011;41608;45.384;20.394;2023-05-09T08:28:12;14.88;;;10.77;;
55706;SDS011;41608;45.384;20.394;2023-05-09T08:30:40;17.25;;;9.85;;
55706;SDS011;41608;45.384;20.394;2023-05-09T08:33:18;15.68;;;10.55;;
55706;SDS011;41608;45.384;20.394;2023-05-09T08:35:50;14.23;;;9.27;;
55706;SDS011;41608;45.384;20.394;2023-05-09T08:38:16;15.95;;;11.05;;
55706;SDS011;41608;45.384;20.394;2023-05-09T08:40:48;15.70;;;10.40;;
55706;SDS011;41608;45.384;20.394;2023-05-09T08:43:16;15.07;;;11.35;;
55706;SDS011;41608;45.384;20.394;2023-05-09T08:46:16;16.70;;;10.90;;
55706;SDS011;41608;45.384;20.394;2023-05-09T08:48:35;23.02;;;12.57;;
55706;SDS011;41608;45.384;20.394;2023-05-09T08:51:04;23.73;;;11.80;;
55706;SDS011;41608;45.384;20.394;2023-05-09T08:53:31;20.15;;;11.95;;
55706;SDS011;41608;45.384;20.394;2023-05-09T08:56:02;17.00;;;11.68;;
55706;SDS011;41608;45.384;20.394;2023-05-09T08:58:29;15.65;;;11.23;;
55706;SDS011;41608;45.384;20.394;2023-05-09T09:00:55;18.60;;;12.68;;
55706;SDS011;41608;45.384;20.394;2023-05-09T09:03:22;14.48;;;10.75;;
55706;SDS011;41608;45.384;20.394;2023-05-09T09:05:50;21.00;;;10.98;;
55706;SDS011;41608;45.384;20.394;2023-05-09T09:08:18;18.55;;;12.25;;
55706;SDS011;41608;45.384;20.394;2023-05-09T09:10:44;16.52;;;10.98;;
55706;SDS011;41608;45.384;20.394;2023-05-09T09:13:11;16.08;;;10.30;;
55706;SDS011;41608;45.384;20.394;2023-05-09T09:15:39;19.88;;;11.02;;
55706;SDS011;41608;45.384;20.394;2023-05-09T09:18:07;18.27;;;11.93;;
55706;SDS011;41608;45.384;20.394;2023-05-09T09:20:44;19.23;;;12.32;;
55706;SDS011;41608;45.384;20.394;2023-05-09T09:23:10;19.42;;;9.60;;
55706;SDS011;41608;45.384;20.394;2023-05-09T09:25:46;14.65;;;10.00;;
55706;SDS011;41608;45.384;20.394;2023-05-09T09:28:12;17.70;;;9.57;;
55706;SDS011;41608;45.384;20.394;2023-05-09T09:30:56;16.10;;;9.52;;
55706;SDS011;41608;45.384;20.394;2023-05-09T09:33:23;16.23;;;9.52;;
55706;SDS011;41608;45.384;20.394;2023-05-09T09:35:53;18.30;;;10.05;;
55706;SDS011;41608;45.384;20.394;2023-05-09T09:38:20;19.00;;;12.10;;
55706;SDS011;41608;45.384;20.394;2023-05-09T09:40:52;21.20;;;11.88;;
55706;SDS011;41608;45.384;20.394;2023-05-09T09:43:28;19.38;;;11.82;;
55706;SDS011;41608;45.384;20.394;2023-05-09T09:46:00;14.68;;;10.43;;
55706;SDS011;41608;45.384;20.394;2023-05-09T09:48:26;18.27;;;11.57;;
55706;SDS011;41608;45.384;20.394;2023-05-09T09:50:56;14.25;;;9.88;;
55706;SDS011;41608;45.384;20.394;2023-05-09T09:53:22;16.48;;;10.13;;
55706;SDS011;41608;45.384;20.394;2023-05-09T09:55:54;14.15;;;9.80;;
55706;SDS011;41608;45.384;20.394;2023-05-09T09:58:20;11.95;;;6.70;;
55706;SDS011;41608;45.384;20.394;2023-05-09T10:01:02;15.40;;;7.30;;
55706;SDS011;41608;45.384;20.394;2023-05-09T10:03:39;11.57;;;8.20;;
55706;SDS011;41608;45.384;20.394;2023-05-09T10:06:12;10.65;;;7.97;;
55706;SDS011;41608;45.384;20.394;2023-05-09T10:08:39;13.93;;;8.10;;
55706;SDS011;41608;45.384;20.394;2023-05-09T10:11:05;17.63;;;7.38;;
55706;SDS011;41608;45.384;20.394;2023-05-09T10:13:35;22.45;;;6.75;;
55706;SDS011;41608;45.384;20.394;2023-05-09T10:16:02;8.45;;;5.70;;
55706;SDS011;41608;45.384;20.394;2023-05-09T10:18:29;10.77;;;6.50;;
55706;SDS011;41608;45.384;20.394;2023-05-09T10:21:02;8.52;;;6.38;;
55706;SDS011;41608;45.384;20.394;2023-05-09T10:23:30;7.88;;;5.55;;
55706;SDS011;41608;45.384;20.394;2023-05-09T10:25:59;10.07;;;7.20;;
55706;SDS011;41608;45.384;20.394;2023-05-09T10:28:30;14.02;;;6.80;;
55706;SDS011;41608;45.384;20.394;2023-05-09T10:31:06;12.48;;;6.53;;
55706;SDS011;41608;45.384;20.394;2023-05-09T10:33:48;12.38;;;7.35;;
55706;SDS011;41608;45.384;20.394;2023-05-09T10:36:17;10.18;;;7.40;;
55706;SDS011;41608;45.384;20.394;2023-05-09T10:38:45;6.57;;;4.50;;
55706;SDS011;41608;45.384;20.394;2023-05-09T10:41:11;10.30;;;5.80;;
55706;SDS011;41608;45.384;20.394;2023-05-09T10:43:38;10.75;;;5.68;;
55706;SDS011;41608;45.384;20.394;2023-05-09T10:46:05;12.88;;;5.07;;
55706;SDS011;41608;45.384;20.394;2023-05-09T10:48:31;7.72;;;4.75;;
55706;SDS011;41608;45.384;20.394;2023-05-09T10:50:58;6.35;;;3.10;;
55706;SDS011;41608;45.384;20.394;2023-05-09T10:53:39;4.53;;;3.25;;
55706;SDS011;41608;45.384;20.394;2023-05-09T10:56:07;8.93;;;3.85;;
55706;SDS011;41608;45.384;20.394;2023-05-09T10:58:34;13.23;;;5.22;;
55706;SDS011;41608;45.384;20.394;2023-05-09T11:01:04;16.58;;;6.65;;
55706;SDS011;41608;45.384;20.394;2023-05-09T11:09:20;14.85;;;7.18;;
55706;SDS011;41608;45.384;20.394;2023-05-09T11:11:52;47.42;;;10.80;;
55706;SDS011;41608;45.384;20.394;2023-05-09T11:14:28;14.70;;;4.90;;
55706;SDS011;41608;45.384;20.394;2023-05-09T11:16:59;13.07;;;5.70;;
55706;SDS011;41608;45.384;20.394;2023-05-09T11:19:35;10.82;;;5.57;;
55706;SDS011;41608;45.384;20.394;2023-05-09T11:22:25;8.07;;;4.93;;
55706;SDS011;41608;45.384;20.394;2023-05-09T11:25:01;6.47;;;5.18;;
55706;SDS011;41608;45.384;20.394;2023-05-09T11:27:37;9.05;;;4.50;;
55706;SDS011;41608;45.384;20.394;2023-05-09T11:30:07;8.93;;;5.00;;
55706;SDS011;41608;45.384;20.394;2023-05-09T11:32:39;9.90;;;5.50;;
55706;SDS011;41608;45.384;20.394;2023-05-09T11:35:13;9.43;;;6.40;;
55706;SDS011;41608;45.384;20.394;2023-05-09T11:37:44;8.95;;;4.95;;
55706;SDS011;41608;45.384;20.394;2023-05-09T11:40:17;8.27;;;5.47;;
55706;SDS011;41608;45.384;20.394;2023-05-09T11:42:50;6.60;;;4.90;;
55706;SDS011;41608;45.384;20.394;2023-05-09T11:45:20;5.53;;;4.90;;
55706;SDS011;41608;45.384;20.394;2023-05-09T11:47:47;7.10;;;5.78;;
55706;SDS011;41608;45.384;20.394;2023-05-09T11:50:15;12.68;;;4.80;;
55706;SDS011;41608;45.384;20.394;2023-05-09T11:52:41;9.45;;;4.60;;
55706;SDS011;41608;45.384;20.394;2023-05-09T11:55:08;5.80;;;5.20;;
55706;SDS011;41608;45.384;20.394;2023-05-09T11:57:38;5.43;;;4.18;;
55706;SDS011;41608;45.384;20.394;2023-05-09T12:00:04;8.38;;;3.42;;
55706;SDS011;41608;45.384;20.394;2023-05-09T12:02:30;4.95;;;2.53;;
55706;SDS011;41608;45.384;20.394;2023-05-09T12:05:08;4.60;;;2.83;;
55706;SDS011;41608;45.384;20.394;2023-05-09T12:07:37;6.70;;;3.40;;
55706;SDS011;41608;45.384;20.394;2023-05-09T12:10:07;6.75;;;2.65;;
55706;SDS011;41608;45.384;20.394;2023-05-09T12:12:34;4.18;;;2.58;;
55706;SDS011;41608;45.384;20.394;2023-05-09T12:15:01;7.65;;;4.15;;
55706;SDS011;41608;45.384;20.394;2023-05-09T12:17:28;5.55;;;2.97;;
55706;SDS011;41608;45.384;20.394;2023-05-09T12:19:57;7.88;;;3.20;;
55706;SDS011;41608;45.384;20.394;2023-05-09T12:22:23;2.97;;;2.33;;
55706;SDS011;41608;45.384;20.394;2023-05-09T12:24:50;2.67;;;2.30;;
55706;SDS011;41608;45.384;20.394;2023-05-09T12:27:16;3.53;;;2.10;;
55706;SDS011;41608;45.384;20.394;2023-05-09T12:29:42;13.73;;;3.50;;
55706;SDS011;41608;45.384;20.394;2023-05-09T12:32:12;6.40;;;2.67;;
55706;SDS011;41608;45.384;20.394;2023-05-09T12:34:38;6.43;;;3.58;;
55706;SDS011;41608;45.384;20.394;2023-05-09T12:37:12;6.30;;;2.50;;
55706;SDS011;41608;45.384;20.394;2023-05-09T12:39:39;16.92;;;3.85;;
55706;SDS011;41608;45.384;20.394;2023-05-09T12:42:10;6.88;;;3.30;;
55706;SDS011;41608;45.384;20.394;2023-05-09T12:44:39;5.45;;;2.60;;
55706;SDS011;41608;45.384;20.394;2023-05-09T12:47:06;6.30;;;2.80;;
55706;SDS011;41608;45.384;20.394;2023-05-09T12:49:35;10.68;;;4.07;;
55706;SDS011;41608;45.384;20.394;2023-05-09T12:52:15;4.18;;;2.60;;
55706;SDS011;41608;45.384;20.394;2023-05-09T12:54:42;4.70;;;2.42;;
55706;SDS011;41608;45.384;20.394;2023-05-09T12:57:19;7.00;;;2.70;;
55706;SDS011;41608;45.384;20.394;2023-05-09T13:02:13;4.78;;;2.33;;
55706;SDS011;41608;45.384;20.394;2023-05-09T13:04:41;4.32;;;2.83;;
55706;SDS011;41608;45.384;20.394;2023-05-09T13:07:08;7.95;;;3.38;;
55706;SDS011;41608;45.384;20.394;2023-05-09T13:09:34;5.55;;;3.10;;
55706;SDS011;41608;45.384;20.394;2023-05-09T13:12:02;7.95;;;3.05;;
55706;SDS011;41608;45.384;20.394;2023-05-09T13:14:28;4.90;;;2.55;;
55706;SDS011;41608;45.384;20.394;2023-05-09T13:16:54;24.25;;;4.63;;
55706;SDS011;41608;45.384;20.394;2023-05-09T13:19:21;5.10;;;2.15;;
55706;SDS011;41608;45.384;20.394;2023-05-09T13:21:50;4.10;;;1.95;;
55706;SDS011;41608;45.384;20.394;2023-05-09T13:24:17;2.60;;;2.00;;
55706;SDS011;41608;45.384;20.394;2023-05-09T13:26:43;5.38;;;2.97;;
55706;SDS011;41608;45.384;20.394;2023-05-09T13:29:13;3.45;;;2.40;;
55706;SDS011;41608;45.384;20.394;2023-05-09T13:31:43;2.88;;;2.03;;
55706;SDS011;41608;45.384;20.394;2023-05-09T13:34:09;5.32;;;3.03;;
55706;SDS011;41608;45.384;20.394;2023-05-09T13:36:38;5.13;;;2.67;;
55706;SDS011;41608;45.384;20.394;2023-05-09T13:39:09;4.72;;;3.00;;
55706;SDS011;41608;45.384;20.394;2023-05-09T13:41:36;5.47;;;2.97;;
55706;SDS011;41608;45.384;20.394;2023-05-09T13:44:02;5.78;;;2.90;;
55706;SDS011;41608;45.384;20.394;2023-05-09T13:46:31;4.13;;;2.25;;
55706;SDS011;41608;45.384;20.394;2023-05-09T13:48:57;3.17;;;2.10;;
55706;SDS011;41608;45.384;20.394;2023-05-09T13:51:24;5.00;;;2.42;;
55706;SDS011;41608;45.384;20.394;2023-05-09T13:53:51;5.78;;;2.60;;
55706;SDS011;41608;45.384;20.394;2023-05-09T13:56:20;5.90;;;2.90;;
55706;SDS011;41608;45.384;20.394;2023-05-09T13:58:46;7.13;;;3.13;;
55706;SDS011;41608;45.384;20.394;2023-05-09T14:01:15;7.65;;;4.15;;
55706;SDS011;41608;45.384;20.394;2023-05-09T14:03:41;8.27;;;3.60;;
55706;SDS011;41608;45.384;20.394;2023-05-09T14:06:07;9.10;;;3.33;;
55706;SDS011;41608;45.384;20.394;2023-05-09T14:08:34;13.55;;;4.35;;
55706;SDS011;41608;45.384;20.394;2023-05-09T14:11:00;10.43;;;3.38;;
55706;SDS011;41608;45.384;20.394;2023-05-09T14:13:29;4.80;;;3.03;;
55706;SDS011;41608;45.384;20.394;2023-05-09T14:15:56;3.03;;;2.20;;
55706;SDS011;41608;45.384;20.394;2023-05-09T14:18:22;6.95;;;2.63;;
55706;SDS011;41608;45.384;20.394;2023-05-09T14:20:48;7.72;;;3.10;;
55706;SDS011;41608;45.384;20.394;2023-05-09T14:23:14;10.23;;;4.53;;
55706;SDS011;41608;45.384;20.394;2023-05-09T14:25:46;9.60;;;4.53;;
55706;SDS011;41608;45.384;20.394;2023-05-09T14:28:12;6.60;;;3.90;;
55706;SDS011;41608;45.384;20.394;2023-05-09T14:30:38;2.33;;;1.75;;
55706;SDS011;41608;45.384;20.394;2023-05-09T14:33:05;7.22;;;3.40;;
55706;SDS011;41608;45.384;20.394;2023-05-09T14:35:33;7.03;;;2.95;;
55706;SDS011;41608;45.384;20.394;2023-05-09T14:37:59;3.60;;;2.03;;
55706;SDS011;41608;45.384;20.394;2023-05-09T14:40:26;7.68;;;2.92;;
55706;SDS011;41608;45.384;20.394;2023-05-09T14:42:56;5.00;;;2.58;;
55706;SDS011;41608;45.384;20.394;2023-05-09T14:45:23;6.68;;;2.47;;